createdAt,value
2023-04-02T00:00:24.825Z,-23385.94
2023-04-02T00:02:32.595Z,-23385.13
2023-04-02T00:04:38.141Z,-23384.03
2023-04-02T00:06:44.951Z,-23383.22
2023-04-02T00:08:49.266Z,-23383.22
2023-04-02T00:10:54.369Z,-23383.88
2023-04-02T00:13:01.999Z,-23383.38
2023-04-02T00:15:04.984Z,-23381.47
2023-04-02T00:17:07.683Z,-23383.69
2023-04-02T00:19:17.852Z,-23381.78
2023-04-02T00:21:23.194Z,-23381.78
2023-04-02T00:23:25.987Z,-23382.44
2023-04-02T00:25:31.731Z,-23381.97
2023-04-02T00:27:34.408Z,-23379.72
2023-04-02T00:29:37.016Z,-23381.97
2023-04-02T00:31:43.832Z,-23383.22
2023-04-02T00:33:46.900Z,-23382.75
2023-04-02T00:35:51.435Z,-23382.75
2023-04-02T00:37:54.652Z,-23384.66
2023-04-02T00:40:02.078Z,-23384.81
2023-04-02T00:42:07.176Z,-23384.19
2023-04-02T00:44:13.497Z,-23384.19
2023-04-02T00:46:18.635Z,-23386.56
2023-04-02T00:48:40.968Z,-23386.56
2023-04-02T00:50:45.993Z,-23385.78
2023-04-02T00:52:52.015Z,-23387.69
2023-04-02T00:55:07.804Z,-23388.16
2023-04-02T00:57:18.492Z,-23391.00
2023-04-02T00:59:27.441Z,-23391.00
2023-04-02T01:01:36.471Z,-23388.78
2023-04-02T01:03:39.694Z,-23390.69
2023-04-02T01:05:45.182Z,-23389.75
2023-04-02T01:08:07.137Z,-23391.66
2023-04-02T01:10:25.508Z,-23391.00
2023-04-02T01:12:41.804Z,-23389.91
2023-04-02T01:14:50.749Z,-23389.44
2023-04-02T01:17:00.552Z,-23390.22
2023-04-02T01:19:14.720Z,-23391.81
2023-04-02T01:21:30.944Z,-23391.66
2023-04-02T01:23:38.896Z,-23393.72
2023-04-02T01:25:47.204Z,-23393.56
2023-04-02T01:27:58.253Z,-23392.13
2023-04-02T01:30:05.134Z,-23391.00
2023-04-02T01:32:11.626Z,-23390.22
2023-04-02T01:34:17.792Z,-23393.22
2023-04-02T01:36:28.752Z,-23391.66
2023-04-02T01:38:38.974Z,-23391.00
2023-04-02T01:40:48.247Z,-23391.66
2023-04-02T01:42:59.522Z,-23393.56
2023-04-02T01:45:07.097Z,-23397.69
2023-04-02T01:47:12.768Z,-23393.56
2023-04-02T01:49:19.616Z,-23392.91
2023-04-02T01:51:29.527Z,-23394.34
2023-04-02T01:53:32.514Z,-23392.13
2023-04-02T01:55:41.733Z,-23393.22
2023-04-02T01:57:48.087Z,-23391.81
2023-04-02T01:59:50.831Z,-23392.44
2023-04-02T02:02:02.307Z,-23395.16
2023-04-02T02:04:05.219Z,-23392.44
2023-04-02T02:06:08.275Z,-23394.34
2023-04-02T02:08:23.774Z,-23390.38
2023-04-02T02:10:30.010Z,-23389.75
2023-04-02T02:12:33.147Z,-23388.47
2023-04-02T02:14:35.827Z,-23391.00
2023-04-02T02:16:42.057Z,-23390.22
2023-04-02T02:18:49.885Z,-23390.22
2023-04-02T02:20:53.993Z,-23388.78
2023-04-02T02:22:57.913Z,-23390.69
2023-04-02T02:25:05.282Z,-23389.91
2023-04-02T02:27:41.649Z,-23395.78
2023-04-02T02:29:46.637Z,-23396.88
2023-04-02T02:31:55.474Z,-23391.34
2023-04-02T02:34:03.912Z,-23395.00
2023-04-02T02:36:13.982Z,-23395.16
2023-04-02T02:38:43.185Z,-23395.47
2023-04-02T02:40:48.187Z,-23394.34
2023-04-02T02:42:56.389Z,-23394.03
2023-04-02T02:45:01.869Z,-23397.69
2023-04-02T02:47:08.049Z,-23393.22
2023-04-02T02:49:17.330Z,-23394.81
2023-04-02T02:51:26.098Z,-23395.47
2023-04-02T02:53:28.735Z,-23391.81
2023-04-02T02:55:34.750Z,-23394.66
2023-04-02T02:57:40.822Z,-23397.53
2023-04-02T02:59:45.161Z,-23395.16
2023-04-02T03:01:48.412Z,-23395.78
2023-04-02T03:03:54.781Z,-23395.16
2023-04-02T03:06:03.002Z,-23399.59
2023-04-02T03:08:10.415Z,-23396.41
2023-04-02T03:10:20.419Z,-23396.09
2023-04-02T03:12:41.548Z,-23393.22
2023-04-02T03:14:49.969Z,-23392.59
2023-04-02T03:16:59.182Z,-23397.38
2023-04-02T03:19:07.589Z,-23394.50
2023-04-02T03:21:21.446Z,-23396.41
2023-04-02T03:23:29.921Z,-23397.69
2023-04-02T03:25:40.434Z,-23395.63
2023-04-02T03:27:46.614Z,-23396.25
2023-04-02T03:30:01.780Z,-23394.81
2023-04-02T03:32:08.550Z,-23395.78
2023-04-02T03:34:14.690Z,-23395.16
2023-04-02T03:36:23.765Z,-23395.78
2023-04-02T03:38:29.388Z,-23396.88
2023-04-02T03:40:38.414Z,-23398.47
2023-04-02T03:42:45.574Z,-23394.50
2023-04-02T03:44:54.270Z,-23394.34
2023-04-02T03:47:00.505Z,-23392.28
2023-04-02T03:49:08.636Z,-23394.81
2023-04-02T03:51:15.638Z,-23392.13
2023-04-02T03:53:23.448Z,-23392.59
2023-04-02T03:55:29.192Z,-23390.69
2023-04-02T03:57:36.741Z,-23391.00
2023-04-02T03:59:45.021Z,-23391.97
2023-04-02T04:01:56.091Z,-23391.97
2023-04-02T04:04:06.919Z,-23390.38
2023-04-02T04:06:14.741Z,-23393.56
2023-04-02T04:08:22.104Z,-23394.34
2023-04-02T04:10:27.202Z,-23394.81
2023-04-02T04:12:33.447Z,-23390.84
2023-04-02T04:14:38.500Z,-23390.22
2023-04-02T04:16:44.169Z,-23389.75
2023-04-02T04:18:57.134Z,-23390.53
2023-04-02T04:21:02.667Z,-23389.44
2023-04-02T04:23:25.698Z,-23385.94
2023-04-02T04:25:33.975Z,-23387.69
2023-04-02T04:27:42.777Z,-23387.34
2023-04-02T04:29:51.510Z,-23389.25
2023-04-02T04:31:55.572Z,-23389.44
2023-04-02T04:34:05.055Z,-23386.41
2023-04-02T04:36:28.659Z,-23389.09
2023-04-02T04:38:39.098Z,-23388.00
2023-04-02T04:40:50.393Z,-23385.94
2023-04-02T04:42:56.321Z,-23389.09
2023-04-02T04:45:07.508Z,-23387.84
2023-04-02T04:47:16.396Z,-23387.84
2023-04-02T04:49:24.401Z,-23387.19
2023-04-02T04:51:34.708Z,-23386.41
2023-04-02T04:53:47.834Z,-23387.84
2023-04-02T04:55:52.933Z,-23388.78
2023-04-02T04:57:59.384Z,-23388.16
2023-04-02T05:00:09.071Z,-23387.19
2023-04-02T05:02:17.490Z,-23390.06
2023-04-02T05:04:25.874Z,-23388.94
2023-04-02T05:06:37.006Z,-23391.34
2023-04-02T05:08:46.152Z,-23393.09
2023-04-02T05:10:52.239Z,-23392.91
2023-04-02T05:13:00.362Z,-23391.81
2023-04-02T05:15:10.589Z,-23393.88
2023-04-02T05:17:20.315Z,-23391.00
2023-04-02T05:19:29.123Z,-23391.00
2023-04-02T05:21:38.637Z,-23391.00
2023-04-02T05:23:51.141Z,-23391.34
2023-04-02T05:26:00.311Z,-23390.22
2023-04-02T05:28:07.400Z,-23390.38
2023-04-02T05:30:34.168Z,-23390.84
2023-04-02T05:32:41.675Z,-23394.50
2023-04-02T05:34:49.361Z,-23394.50
2023-04-02T05:36:52.316Z,-23394.34
2023-04-02T05:38:57.999Z,-23393.56
2023-04-02T05:41:03.977Z,-23396.25
2023-04-02T05:43:11.054Z,-23392.75
2023-04-02T05:45:24.310Z,-23390.38
2023-04-02T05:47:30.453Z,-23394.19
2023-04-02T05:49:42.556Z,-23390.69
2023-04-02T05:51:50.081Z,-23394.03
2023-04-02T05:53:58.264Z,-23396.41
2023-04-02T05:56:04.591Z,-23398.31
2023-04-02T05:58:34.685Z,-23393.88
2023-04-02T06:00:59.786Z,-23393.88
2023-04-02T06:03:09.098Z,-23394.50
2023-04-02T06:05:16.806Z,-23402.13
2023-04-02T06:07:23.157Z,-23405.31
2023-04-02T06:09:35.964Z,-23395.78
2023-04-02T06:11:42.771Z,-23393.88
2023-04-02T06:13:45.569Z,-23396.09
2023-04-02T06:15:48.329Z,-23394.50
2023-04-02T06:17:59.049Z,-23392.91
2023-04-02T06:20:07.127Z,-23395.94
2023-04-02T06:22:19.572Z,-23394.81
2023-04-02T06:24:26.690Z,-23393.22
2023-04-02T06:26:35.086Z,-23396.09
2023-04-02T06:28:45.216Z,-23392.28
2023-04-02T06:30:49.140Z,-23397.38
2023-04-02T06:32:51.889Z,-23397.06
2023-04-02T06:34:54.926Z,-23398.66
2023-04-02T06:37:00.125Z,-23397.69
2023-04-02T06:39:08.756Z,-23399.28
2023-04-02T06:41:18.529Z,-23401.97
2023-04-02T06:43:33.286Z,-23401.66
2023-04-02T06:45:42.492Z,-23403.25
2023-04-02T06:47:47.950Z,-23404.84
2023-04-02T06:49:55.898Z,-23409.75
2023-04-02T06:52:02.124Z,-23408.66
2023-04-02T06:54:04.953Z,-23408.50
2023-04-02T06:56:20.631Z,-23410.25
2023-04-02T06:58:24.628Z,-23405.94
2023-04-02T07:00:34.084Z,-23409.75
2023-04-02T07:02:40.867Z,-23409.13
2023-04-02T07:04:43.745Z,-23411.19
2023-04-02T07:06:46.601Z,-23408.00
2023-04-02T07:08:49.345Z,-23412.78
2023-04-02T07:10:52.255Z,-23415.31
2023-04-02T07:12:54.873Z,-23416.44
2023-04-02T07:14:58.848Z,-23420.25
2023-04-02T07:17:01.657Z,-23421.81
2023-04-02T07:19:05.083Z,-23420.56
2023-04-02T07:21:07.647Z,-23427.38
2023-04-02T07:23:10.397Z,-23419.28
2023-04-02T07:25:13.071Z,-23420.25
2023-04-02T07:27:16.255Z,-23417.53
2023-04-02T07:29:19.849Z,-23416.28
2023-04-02T07:31:25.920Z,-23420.41
2023-04-02T07:33:31.419Z,-23415.47
2023-04-02T07:35:34.846Z,-23420.88
2023-04-02T07:37:38.240Z,-23418.66
2023-04-02T07:39:41.416Z,-23420.56
2023-04-02T07:41:55.316Z,-23421.03
2023-04-02T07:43:58.020Z,-23422.16
2023-04-02T07:46:00.856Z,-23428.19
2023-04-02T07:48:07.600Z,-23427.22
2023-04-02T07:50:10.594Z,-23421.81
2023-04-02T07:52:13.252Z,-23427.84
2023-04-02T07:54:15.976Z,-23435.97
2023-04-02T07:56:20.565Z,-23430.72
2023-04-02T07:58:23.296Z,-23431.69
2023-04-02T08:00:27.519Z,-23434.06
2023-04-02T08:02:30.192Z,-23435.34
2023-04-02T08:04:34.301Z,-23432.94
2023-04-02T08:06:37.010Z,-23428.81
2023-04-02T08:08:39.947Z,-23430.56
2023-04-02T08:10:42.593Z,-23431.19
2023-04-02T08:12:45.248Z,-23435.47
2023-04-02T08:14:47.911Z,-23442.31
2023-04-02T08:16:52.110Z,-23444.38
2023-04-02T08:18:54.848Z,-23439.28
2023-04-02T08:20:59.227Z,-23442.63
2023-04-02T08:23:03.058Z,-23444.38
2023-04-02T08:25:06.513Z,-23452.31
2023-04-02T08:27:09.212Z,-23450.72
2023-04-02T08:29:12.622Z,-23452.31
2023-04-02T08:31:15.351Z,-23446.28
2023-04-02T08:33:18.543Z,-23450.56
2023-04-02T08:35:23.394Z,-23455.47
2023-04-02T08:37:28.063Z,-23465.47
2023-04-02T08:39:33.156Z,-23463.25
2023-04-02T08:41:39.113Z,-23453.91
2023-04-02T08:43:58.877Z,-23459.59
2023-04-02T08:46:11.278Z,-23466.25
2023-04-02T08:48:16.729Z,-23464.53
2023-04-02T08:50:29.059Z,-23458.19
2023-04-02T08:52:36.686Z,-23465.94
2023-04-02T08:54:39.422Z,-23465.47
2023-04-02T08:56:48.055Z,-23475.47
2023-04-02T08:58:54.444Z,-23463.88
2023-04-02T09:00:59.266Z,-23465.47
2023-04-02T09:03:07.593Z,-23471.81
2023-04-02T09:05:18.480Z,-23468.81
2023-04-02T09:07:21.720Z,-23458.97
2023-04-02T09:09:26.605Z,-23459.28
2023-04-02T09:11:36.693Z,-23460.25
2023-04-02T09:13:46.467Z,-23460.56
2023-04-02T09:15:51.330Z,-23469.13
2023-04-02T09:18:01.015Z,-23462.63
2023-04-02T09:20:17.189Z,-23465.94
2023-04-02T09:22:22.710Z,-23457.06
2023-04-02T09:24:26.779Z,-23450.09
2023-04-02T09:26:32.063Z,-23448.97
2023-04-02T09:28:34.707Z,-23447.38
2023-04-02T09:30:54.066Z,-23448.66
2023-04-02T09:33:00.710Z,-23448.50
2023-04-02T09:35:24.741Z,-23446.91
2023-04-02T09:37:29.521Z,-23442.94
2023-04-02T09:39:35.522Z,-23445.00
2023-04-02T09:41:38.606Z,-23449.13
2023-04-02T09:43:41.357Z,-23445.31
2023-04-02T09:45:45.353Z,-23448.81
2023-04-02T09:47:49.009Z,-23452.00
2023-04-02T09:49:52.648Z,-23445.00
2023-04-02T09:52:20.464Z,-23446.13
2023-04-02T09:54:23.107Z,-23445.31
2023-04-02T09:56:27.068Z,-23446.91
2023-04-02T09:58:29.746Z,-23445.16
2023-04-02T10:00:32.804Z,-23448.97
2023-04-02T10:02:35.624Z,-23447.53
2023-04-02T10:04:44.794Z,-23451.34
2023-04-02T10:06:53.716Z,-23455.78
2023-04-02T10:08:56.748Z,-23454.53
2023-04-02T10:11:02.779Z,-23453.72
2023-04-02T10:13:10.139Z,-23456.13
2023-04-02T10:15:18.159Z,-23458.66
2023-04-02T10:17:24.302Z,-23457.38
2023-04-02T10:19:33.198Z,-23451.66
2023-04-02T10:21:39.161Z,-23456.44
2023-04-02T10:23:41.857Z,-23461.50
2023-04-02T10:25:51.990Z,-23457.53
2023-04-02T10:28:06.209Z,-23459.59
2023-04-02T10:30:19.683Z,-23458.66
2023-04-02T10:32:27.089Z,-23464.38
2023-04-02T10:34:37.570Z,-23465.16
2023-04-02T10:36:50.425Z,-23471.97
2023-04-02T10:39:01.970Z,-23461.66
2023-04-02T10:41:12.794Z,-23467.22
2023-04-02T10:43:40.252Z,-23466.25
2023-04-02T10:45:50.825Z,-23470.69
2023-04-02T10:48:01.734Z,-23473.41
2023-04-02T10:50:26.608Z,-23473.72
2023-04-02T10:52:34.526Z,-23470.06
2023-04-02T10:54:43.267Z,-23471.34
2023-04-02T10:56:50.992Z,-23464.53
2023-04-02T10:58:59.896Z,-23469.91
2023-04-02T11:01:11.203Z,-23470.69
2023-04-02T11:03:17.829Z,-23472.28
2023-04-02T11:05:24.711Z,-23470.69
2023-04-02T11:07:32.415Z,-23470.53
2023-04-02T11:09:40.035Z,-23467.53
2023-04-02T11:11:45.496Z,-23473.56
2023-04-02T11:13:55.964Z,-23473.09
2023-04-02T11:15:58.941Z,-23467.84
2023-04-02T11:18:03.224Z,-23469.44
2023-04-02T11:20:44.650Z,-23471.66
2023-04-02T11:23:06.418Z,-23473.25
2023-04-02T11:25:22.970Z,-23474.81
2023-04-02T11:27:30.622Z,-23475.47
2023-04-02T11:29:34.728Z,-23479.25
2023-04-02T11:31:37.576Z,-23477.53
2023-04-02T11:33:45.641Z,-23478.00
2023-04-02T11:35:50.056Z,-23474.81
2023-04-02T11:37:54.303Z,-23468.31
2023-04-02T11:39:59.149Z,-23470.69
2023-04-02T11:42:04.474Z,-23475.47
2023-04-02T11:44:24.141Z,-23477.69
2023-04-02T11:46:46.592Z,-23484.34
2023-04-02T11:48:50.646Z,-23482.44
2023-04-02T11:50:53.734Z,-23475.47
2023-04-02T11:53:00.740Z,-23477.69
2023-04-02T11:55:24.358Z,-23477.69
2023-04-02T11:57:42.035Z,-23479.59
2023-04-02T11:59:56.973Z,-23488.47
2023-04-02T12:02:11.652Z,-23485.28
2023-04-02T12:04:38.587Z,-23479.44
2023-04-02T12:06:55.633Z,-23483.38
2023-04-02T12:09:10.297Z,-23488.78
2023-04-02T12:11:12.945Z,-23487.03
2023-04-02T12:13:19.665Z,-23489.25
2023-04-02T12:15:46.172Z,-23493.69
2023-04-02T12:17:48.972Z,-23494.16
2023-04-02T12:19:55.275Z,-23493.53
2023-04-02T12:22:00.491Z,-23490.84
2023-04-02T12:24:04.481Z,-23491.31
2023-04-02T12:26:09.077Z,-23490.22
2023-04-02T12:28:19.622Z,-23503.69
2023-04-02T12:30:24.082Z,-23506.06
2023-04-02T12:32:29.983Z,-23502.41
2023-04-02T12:34:32.949Z,-23502.41
2023-04-02T12:36:36.924Z,-23508.59
2023-04-02T12:38:47.029Z,-23513.19
2023-04-02T12:40:53.893Z,-23508.09
2023-04-02T12:42:56.520Z,-23509.69
2023-04-02T12:44:59.708Z,-23518.56
2023-04-02T12:47:02.482Z,-23525.69
2023-04-02T12:49:07.626Z,-23507.63
2023-04-02T12:51:11.706Z,-23519.81
2023-04-02T12:53:22.441Z,-23524.09
2023-04-02T12:55:27.760Z,-23521.41
2023-04-02T12:57:41.497Z,-23514.59
2023-04-02T12:59:44.816Z,-23510.97
2023-04-02T13:01:57.277Z,-23521.25
2023-04-02T13:04:00.854Z,-23510.00
2023-04-02T13:06:03.728Z,-23502.09
2023-04-02T13:08:06.993Z,-23513.50
2023-04-02T13:10:25.553Z,-23499.41
2023-04-02T13:12:33.365Z,-23498.59
2023-04-02T13:14:36.199Z,-23500.50
2023-04-02T13:16:40.981Z,-23502.25
2023-04-02T13:18:45.793Z,-23506.84
2023-04-02T13:21:06.563Z,-23511.13
2023-04-02T13:23:32.016Z,-23506.22
2023-04-02T13:25:37.606Z,-23500.19
2023-04-02T13:27:40.221Z,-23499.25
2023-04-02T13:29:42.820Z,-23501.78
2023-04-02T13:31:45.500Z,-23502.25
2023-04-02T13:33:48.156Z,-23507.47
2023-04-02T13:35:50.957Z,-23501.63
2023-04-02T13:37:53.783Z,-23505.41
2023-04-02T13:39:56.401Z,-23496.72
2023-04-02T13:42:02.660Z,-23492.59
2023-04-02T13:44:05.871Z,-23492.09
2023-04-02T13:46:09.689Z,-23497.03
2023-04-02T13:48:15.931Z,-23497.19
2023-04-02T13:50:20.857Z,-23488.16
2023-04-02T13:52:23.547Z,-23491.00
2023-04-02T13:54:29.555Z,-23487.84
2023-04-02T13:56:32.236Z,-23488.78
2023-04-02T13:58:36.300Z,-23493.84
2023-04-02T14:00:38.985Z,-23492.09
2023-04-02T14:02:46.222Z,-23491.16
2023-04-02T14:04:51.106Z,-23481.81
2023-04-02T14:07:22.809Z,-23481.47
2023-04-02T14:09:32.861Z,-23477.69
2023-04-02T14:11:47.449Z,-23467.69
2023-04-02T14:14:06.669Z,-23473.72
2023-04-02T14:16:41.038Z,-23476.09
2023-04-02T14:18:56.834Z,-23477.03
2023-04-02T14:21:11.564Z,-23469.75
2023-04-02T14:23:31.365Z,-23466.56
2023-04-02T14:25:43.381Z,-23460.25
2023-04-02T14:27:54.208Z,-23461.50
2023-04-02T14:30:04.900Z,-23461.34
2023-04-02T14:32:10.666Z,-23457.84
2023-04-02T14:34:21.650Z,-23453.25
2023-04-02T14:36:35.090Z,-23453.91
2023-04-02T14:38:43.217Z,-23452.63
2023-04-02T14:40:51.509Z,-23453.25
2023-04-02T14:43:01.747Z,-23445.31
2023-04-02T14:45:10.800Z,-23444.84
2023-04-02T14:47:19.870Z,-23444.38
2023-04-02T14:49:26.261Z,-23444.84
2023-04-02T14:51:33.941Z,-23441.84
2023-04-02T14:53:48.576Z,-23440.09
2023-04-02T14:55:53.830Z,-23441.19
2023-04-02T14:57:57.440Z,-23441.34
2023-04-02T15:00:05.662Z,-23442.16
2023-04-02T15:02:18.163Z,-23441.84
2023-04-02T15:04:27.784Z,-23445.66
2023-04-02T15:06:36.719Z,-23442.31
2023-04-02T15:08:48.222Z,-23438.50
2023-04-02T15:11:03.501Z,-23443.91
2023-04-02T15:13:17.427Z,-23446.75
2023-04-02T15:15:39.324Z,-23440.88
2023-04-02T15:17:44.694Z,-23440.25
2023-04-02T15:19:47.483Z,-23438.34
2023-04-02T15:22:09.732Z,-23439.13
2023-04-02T15:24:18.688Z,-23431.19
2023-04-02T15:26:29.068Z,-23430.41
2023-04-02T15:28:39.136Z,-23429.44
2023-04-02T15:30:44.638Z,-23426.28
2023-04-02T15:32:49.012Z,-23426.75
2023-04-02T15:34:58.812Z,-23423.25
2023-04-02T15:37:14.258Z,-23421.66
2023-04-02T15:39:36.925Z,-23422.47
2023-04-02T15:41:58.390Z,-23424.38
2023-04-02T15:44:09.807Z,-23422.16
2023-04-02T15:46:23.102Z,-23425.97
2023-04-02T15:48:50.417Z,-23428.97
2023-04-02T15:51:04.472Z,-23425.63
2023-04-02T15:53:23.580Z,-23419.94
2023-04-02T15:55:33.753Z,-23415.63
2023-04-02T15:57:51.090Z,-23414.53
2023-04-02T16:00:03.984Z,-23415.63
2023-04-02T16:02:31.856Z,-23411.34
2023-04-02T16:04:48.131Z,-23404.03
2023-04-02T16:07:20.237Z,-23407.38
2023-04-02T16:09:29.320Z,-23402.63
2023-04-02T16:11:32.310Z,-23404.03
2023-04-02T16:13:37.492Z,-23401.81
2023-04-02T16:15:45.948Z,-23399.75
2023-04-02T16:17:54.262Z,-23396.41
2023-04-02T16:20:15.968Z,-23398.78
2023-04-02T16:22:24.467Z,-23396.56
2023-04-02T16:24:27.103Z,-23394.50
2023-04-02T16:26:42.679Z,-23396.41
2023-04-02T16:28:56.072Z,-23393.88
2023-04-02T16:31:07.836Z,-23392.91
2023-04-02T16:33:21.346Z,-23393.41
2023-04-02T16:35:42.764Z,-23395.00
2023-04-02T16:37:53.501Z,-23391.50
2023-04-02T16:40:06.838Z,-23391.97
2023-04-02T16:42:23.160Z,-23391.34
2023-04-02T16:44:34.417Z,-23389.91
2023-04-02T16:46:44.907Z,-23390.69
2023-04-02T16:48:56.009Z,-23389.44
2023-04-02T16:51:10.853Z,-23389.09
2023-04-02T16:53:29.194Z,-23390.69
2023-04-02T16:55:42.316Z,-23391.00
2023-04-02T16:57:54.662Z,-23391.66
2023-04-02T17:00:07.682Z,-23389.75
2023-04-02T17:02:27.755Z,-23388.00
2023-04-02T17:04:51.557Z,-23389.44
2023-04-02T17:07:03.822Z,-23387.84
2023-04-02T17:09:15.498Z,-23385.94
2023-04-02T17:11:25.894Z,-23384.34
2023-04-02T17:13:37.612Z,-23385.28
2023-04-02T17:15:41.733Z,-23384.50
2023-04-02T17:17:45.060Z,-23386.25
2023-04-02T17:19:51.784Z,-23383.22
2023-04-02T17:21:59.381Z,-23384.50
2023-04-02T17:24:17.378Z,-23383.69
2023-04-02T17:26:23.334Z,-23382.75
2023-04-02T17:28:29.675Z,-23382.75
2023-04-02T17:30:38.997Z,-23381.16
2023-04-02T17:32:41.768Z,-23380.22
2023-04-02T17:34:44.432Z,-23376.56
2023-04-02T17:36:55.968Z,-23374.16
2023-04-02T17:39:09.278Z,-23373.22
2023-04-02T17:41:20.665Z,-23370.66
2023-04-02T17:43:37.653Z,-23368.59
2023-04-02T17:45:47.080Z,-23366.38
2023-04-02T17:47:59.820Z,-23369.06
2023-04-02T17:50:43.998Z,-23365.44
2023-04-02T17:52:53.317Z,-23363.03
2023-04-02T17:55:08.152Z,-23362.25
2023-04-02T17:57:30.925Z,-23361.28
2023-04-02T17:59:52.555Z,-23354.94
2023-04-02T18:02:06.056Z,-23357.63
2023-04-02T18:04:19.509Z,-23355.56
2023-04-02T18:06:26.087Z,-23353.81
2023-04-02T18:08:40.404Z,-23353.50
2023-04-02T18:10:55.846Z,-23351.91
2023-04-02T18:13:03.222Z,-23349.66
2023-04-02T18:15:32.277Z,-23346.81
2023-04-02T18:17:44.018Z,-23350.63
2023-04-02T18:19:55.000Z,-23350.63
2023-04-02T18:22:03.259Z,-23350.63
2023-04-02T18:24:28.926Z,-23347.28
2023-04-02T18:26:44.732Z,-23341.88
2023-04-02T18:28:57.785Z,-23349.19
2023-04-02T18:31:05.973Z,-23342.03
2023-04-02T18:33:29.789Z,-23346.50
2023-04-02T18:35:34.744Z,-23340.13
2023-04-02T18:37:43.499Z,-23345.22
2023-04-02T18:40:00.488Z,-23343.00
2023-04-02T18:42:11.004Z,-23335.97
2023-04-02T18:44:28.929Z,-23336.31
2023-04-02T18:46:38.485Z,-23335.81
2023-04-02T18:48:47.948Z,-23335.03
2023-04-02T18:50:50.797Z,-23332.66
2023-04-02T18:52:53.833Z,-23334.25
2023-04-02T18:55:02.363Z,-23329.94
2023-04-02T18:57:13.289Z,-23325.47
2023-04-02T18:59:31.275Z,-23326.75
2023-04-02T19:01:38.507Z,-23324.22
2023-04-02T19:03:46.421Z,-23323.91
2023-04-02T19:05:56.403Z,-23321.66
2023-04-02T19:08:04.341Z,-23321.03
2023-04-02T19:10:21.330Z,-23320.53
2023-04-02T19:12:25.469Z,-23318.47
2023-04-02T19:14:29.884Z,-23316.88
2023-04-02T19:17:02.367Z,-23320.38
2023-04-02T19:19:13.873Z,-23315.13
2023-04-02T19:21:21.506Z,-23308.91
2023-04-02T19:23:42.172Z,-23309.72
2023-04-02T19:25:57.143Z,-23303.81
2023-04-02T19:28:09.396Z,-23305.75
2023-04-02T19:30:31.327Z,-23301.59
2023-04-02T19:32:40.843Z,-23303.66
2023-04-02T19:34:49.553Z,-23303.97
2023-04-02T19:36:56.474Z,-23301.28
2023-04-02T19:39:04.491Z,-23300.00
2023-04-02T19:41:16.725Z,-23299.69
2023-04-02T19:43:20.914Z,-23301.91
2023-04-02T19:45:32.375Z,-23301.28
2023-04-02T19:47:34.987Z,-23302.22
2023-04-02T19:49:38.211Z,-23296.34
2023-04-02T19:51:40.990Z,-23295.22
2023-04-02T19:53:43.734Z,-23298.72
2023-04-02T19:55:47.238Z,-23294.75
2023-04-02T19:57:51.337Z,-23290.44
2023-04-02T19:59:56.692Z,-23291.72
2023-04-02T20:02:02.109Z,-23289.97
2023-04-02T20:04:04.838Z,-23289.19
2023-04-02T20:06:07.511Z,-23287.91
2023-04-02T20:08:10.858Z,-23286.63
2023-04-02T20:10:13.597Z,-23287.56
2023-04-02T20:12:16.270Z,-23285.66
2023-04-02T20:14:18.858Z,-23283.91
2023-04-02T20:16:23.756Z,-23281.38
2023-04-02T20:18:26.977Z,-23282.47
2023-04-02T20:20:29.700Z,-23283.44
2023-04-02T20:22:32.391Z,-23283.13
2023-04-02T20:24:35.098Z,-23283.13
2023-04-02T20:26:37.760Z,-23281.19
2023-04-02T20:28:40.900Z,-23282.31
2023-04-02T20:30:43.581Z,-23284.72
2023-04-02T20:32:47.670Z,-23280.25
2023-04-02T20:34:50.371Z,-23278.50
2023-04-02T20:36:53.677Z,-23278.03
2023-04-02T20:38:57.516Z,-23281.38
2023-04-02T20:41:01.765Z,-23280.25
2023-04-02T20:43:04.516Z,-23276.75
2023-04-02T20:45:09.056Z,-23277.84
2023-04-02T20:47:12.211Z,-23277.38
2023-04-02T20:49:16.238Z,-23282.16
2023-04-02T20:51:18.929Z,-23278.34
2023-04-02T20:53:21.785Z,-23278.03
2023-04-02T20:55:24.615Z,-23273.56
2023-04-02T20:57:29.754Z,-23279.13
2023-04-02T20:59:32.423Z,-23278.03
2023-04-02T21:01:35.313Z,-23275.78
2023-04-02T21:03:39.712Z,-23277.38
2023-04-02T21:05:47.364Z,-23273.22
2023-04-02T21:07:49.999Z,-23275.00
2023-04-02T21:09:53.702Z,-23270.84
2023-04-02T21:11:56.433Z,-23272.59
2023-04-02T21:13:59.407Z,-23273.88
2023-04-02T21:16:02.066Z,-23276.25
2023-04-02T21:18:04.861Z,-23273.88
2023-04-02T21:20:09.801Z,-23271.47
2023-04-02T21:22:14.708Z,-23273.72
2023-04-02T21:24:17.378Z,-23276.59
2023-04-02T21:26:20.642Z,-23276.09
2023-04-02T21:28:23.632Z,-23273.88
2023-04-02T21:30:26.298Z,-23274.50
2023-04-02T21:32:29.001Z,-23272.91
2023-04-02T21:34:31.719Z,-23276.75
2023-04-02T21:36:36.756Z,-23278.34
2023-04-02T21:38:44.653Z,-23273.56
2023-04-02T21:40:47.257Z,-23273.88
2023-04-02T21:42:49.927Z,-23273.72
2023-04-02T21:44:53.341Z,-23271.97
2023-04-02T21:46:56.116Z,-23272.59
2023-04-02T21:49:00.433Z,-23274.19
2023-04-02T21:51:07.929Z,-23273.22
2023-04-02T21:53:10.618Z,-23272.91
2023-04-02T21:55:14.729Z,-23272.13
2023-04-02T21:57:18.994Z,-23274.34
2023-04-02T21:59:21.833Z,-23270.69
2023-04-02T22:01:28.168Z,-23272.28
2023-04-02T22:03:32.241Z,-23274.34
2023-04-02T22:05:35.286Z,-23271.66
2023-04-02T22:07:38.218Z,-23274.19
2023-04-02T22:09:40.882Z,-23277.38
2023-04-02T22:11:46.517Z,-23275.47
2023-04-02T22:13:50.811Z,-23271.97
2023-04-02T22:15:53.498Z,-23278.03
2023-04-02T22:17:56.184Z,-23277.38
2023-04-02T22:19:58.897Z,-23271.97
2023-04-02T22:22:01.632Z,-23270.53
2023-04-02T22:24:06.290Z,-23271.47
2023-04-02T22:26:10.241Z,-23275.78
2023-04-02T22:28:14.264Z,-23276.59
2023-04-02T22:30:17.129Z,-23274.19
2023-04-02T22:32:19.843Z,-23272.28
2023-04-02T22:34:22.533Z,-23274.81
2023-04-02T22:36:26.588Z,-23274.50
2023-04-02T22:38:29.368Z,-23271.31
2023-04-02T22:40:32.084Z,-23276.09
2023-04-02T22:42:34.980Z,-23268.44
2023-04-02T22:44:38.990Z,-23269.72
2023-04-02T22:46:41.773Z,-23275.00
2023-04-02T22:48:45.398Z,-23276.75
2023-04-02T22:50:50.558Z,-23277.38
2023-04-02T22:52:53.294Z,-23271.31
2023-04-02T22:54:56.046Z,-23270.69
2023-04-02T22:56:58.677Z,-23269.09
2023-04-02T22:59:01.431Z,-23268.28
2023-04-02T23:01:08.114Z,-23274.03
2023-04-02T23:03:10.857Z,-23268.44
2023-04-02T23:05:13.602Z,-23272.59
2023-04-02T23:07:16.299Z,-23268.13
2023-04-02T23:09:18.994Z,-23267.50
2023-04-02T23:11:30.756Z,-23267.19
2023-04-02T23:13:33.808Z,-23266.22
2023-04-02T23:15:36.482Z,-23266.22
2023-04-02T23:17:40.717Z,-23264.63
2023-04-02T23:19:43.492Z,-23267.19
2023-04-02T23:21:46.302Z,-23268.78
2023-04-02T23:23:51.071Z,-23267.97
2023-04-02T23:26:03.851Z,-23268.44
2023-04-02T23:28:06.464Z,-23269.72
2023-04-02T23:30:09.844Z,-23266.53
2023-04-02T23:32:12.488Z,-23266.22
2023-04-02T23:34:16.550Z,-23269.09
2023-04-02T23:36:22.656Z,-23266.38
2023-04-02T23:38:25.430Z,-23266.22
2023-04-02T23:40:28.097Z,-23264.94
2023-04-02T23:42:30.914Z,-23261.44
2023-04-02T23:44:33.690Z,-23261.91
2023-04-02T23:46:36.804Z,-23264.78
2023-04-02T23:48:39.682Z,-23262.06
2023-04-02T23:50:45.050Z,-23259.03
2023-04-02T23:52:48.172Z,-23258.88
2023-04-02T23:54:50.792Z,-23259.22
2023-04-02T23:56:53.500Z,-23261.59
2023-04-02T23:58:56.176Z,-23259.38
